sensor_id;sensor_type;location;lat;lon;timestamp;P1;durP1;ratioP1;P2;durP2;ratioP2
51782;SDS011;37845;53.196;5.638;2023-03-03T00:00:42;5.25;;;2.25;;
51782;SDS011;37845;53.196;5.638;2023-03-03T00:03:09;6.82;;;2.58;;
51782;SDS011;37845;53.196;5.638;2023-03-03T00:05:39;3.70;;;1.63;;
51782;SDS011;37845;53.196;5.638;2023-03-03T00:08:05;4.43;;;2.30;;
51782;SDS011;37845;53.196;5.638;2023-03-03T00:10:31;4.28;;;2.53;;
51782;SDS011;37845;53.196;5.638;2023-03-03T00:13:02;4.38;;;1.90;;
51782;SDS011;37845;53.196;5.638;2023-03-03T00:15:28;4.70;;;2.13;;
51782;SDS011;37845;53.196;5.638;2023-03-03T00:17:55;5.53;;;1.92;;
51782;SDS011;37845;53.196;5.638;2023-03-03T00:20:29;4.70;;;2.20;;
51782;SDS011;37845;53.196;5.638;2023-03-03T00:23:19;8.00;;;2.47;;
51782;SDS011;37845;53.196;5.638;2023-03-03T00:25:45;4.68;;;2.17;;
51782;SDS011;37845;53.196;5.638;2023-03-03T00:30:49;2.03;;;1.23;;
51782;SDS011;37845;53.196;5.638;2023-03-03T00:33:22;6.28;;;2.60;;
51782;SDS011;37845;53.196;5.638;2023-03-03T00:42:00;3.28;;;1.65;;
51782;SDS011;37845;53.196;5.638;2023-03-03T00:49:54;6.50;;;2.17;;
51782;SDS011;37845;53.196;5.638;2023-03-03T00:52:45;4.40;;;1.88;;
51782;SDS011;37845;53.196;5.638;2023-03-03T00:55:33;4.38;;;2.03;;
51782;SDS011;37845;53.196;5.638;2023-03-03T00:57:59;3.63;;;2.00;;
51782;SDS011;37845;53.196;5.638;2023-03-03T01:00:25;15.00;;;2.60;;
51782;SDS011;37845;53.196;5.638;2023-03-03T01:02:51;10.05;;;2.85;;
51782;SDS011;37845;53.196;5.638;2023-03-03T01:05:17;4.05;;;2.03;;
51782;SDS011;37845;53.196;5.638;2023-03-03T01:07:44;6.55;;;2.03;;
51782;SDS011;37845;53.196;5.638;2023-03-03T01:10:10;4.95;;;2.10;;
51782;SDS011;37845;53.196;5.638;2023-03-03T01:12:36;6.47;;;1.80;;
51782;SDS011;37845;53.196;5.638;2023-03-03T01:15:04;2.85;;;1.45;;
51782;SDS011;37845;53.196;5.638;2023-03-03T01:17:35;7.75;;;1.50;;
51782;SDS011;37845;53.196;5.638;2023-03-03T01:20:01;3.33;;;1.83;;
51782;SDS011;37845;53.196;5.638;2023-03-03T01:22:33;3.95;;;2.47;;
51782;SDS011;37845;53.196;5.638;2023-03-03T01:24:59;2.92;;;1.45;;
51782;SDS011;37845;53.196;5.638;2023-03-03T01:27:24;3.30;;;1.92;;
51782;SDS011;37845;53.196;5.638;2023-03-03T01:29:52;2.45;;;1.52;;
51782;SDS011;37845;53.196;5.638;2023-03-03T01:32:26;6.78;;;1.80;;
51782;SDS011;37845;53.196;5.638;2023-03-03T01:34:52;6.78;;;1.60;;
51782;SDS011;37845;53.196;5.638;2023-03-03T01:37:19;6.18;;;2.33;;
51782;SDS011;37845;53.196;5.638;2023-03-03T01:39:49;6.63;;;2.30;;
51782;SDS011;37845;53.196;5.638;2023-03-03T01:42:16;9.20;;;2.00;;
51782;SDS011;37845;53.196;5.638;2023-03-03T01:44:43;4.95;;;1.92;;
51782;SDS011;37845;53.196;5.638;2023-03-03T01:49:43;7.68;;;1.92;;
51782;SDS011;37845;53.196;5.638;2023-03-03T01:52:20;5.32;;;1.70;;
51782;SDS011;37845;53.196;5.638;2023-03-03T01:55:07;4.82;;;2.42;;
51782;SDS011;37845;53.196;5.638;2023-03-03T01:57:41;5.70;;;2.40;;
51782;SDS011;37845;53.196;5.638;2023-03-03T02:00:10;3.63;;;1.73;;
51782;SDS011;37845;53.196;5.638;2023-03-03T02:02:37;4.13;;;1.85;;
51782;SDS011;37845;53.196;5.638;2023-03-03T02:05:06;4.47;;;2.00;;
51782;SDS011;37845;53.196;5.638;2023-03-03T02:07:32;6.10;;;1.80;;
51782;SDS011;37845;53.196;5.638;2023-03-03T02:10:04;7.07;;;2.88;;
51782;SDS011;37845;53.196;5.638;2023-03-03T02:12:47;3.97;;;2.20;;
51782;SDS011;37845;53.196;5.638;2023-03-03T02:15:22;9.30;;;2.72;;
51782;SDS011;37845;53.196;5.638;2023-03-03T02:18:10;3.58;;;1.80;;
51782;SDS011;37845;53.196;5.638;2023-03-03T02:21:14;5.07;;;1.58;;
51782;SDS011;37845;53.196;5.638;2023-03-03T02:23:52;4.70;;;2.10;;
51782;SDS011;37845;53.196;5.638;2023-03-03T02:26:21;4.55;;;2.25;;
51782;SDS011;37845;53.196;5.638;2023-03-03T02:28:49;4.35;;;1.90;;
51782;SDS011;37845;53.196;5.638;2023-03-03T02:31:17;4.53;;;2.03;;
51782;SDS011;37845;53.196;5.638;2023-03-03T02:33:47;3.28;;;1.73;;
51782;SDS011;37845;53.196;5.638;2023-03-03T02:36:17;3.22;;;1.90;;
51782;SDS011;37845;53.196;5.638;2023-03-03T02:41:37;4.03;;;2.10;;
51782;SDS011;37845;53.196;5.638;2023-03-03T02:44:24;11.65;;;2.28;;
51782;SDS011;37845;53.196;5.638;2023-03-03T02:46:59;7.82;;;2.10;;
51782;SDS011;37845;53.196;5.638;2023-03-03T02:49:41;8.75;;;2.63;;
51782;SDS011;37845;53.196;5.638;2023-03-03T02:52:08;5.18;;;1.85;;
51782;SDS011;37845;53.196;5.638;2023-03-03T02:54:43;4.43;;;1.50;;
51782;SDS011;37845;53.196;5.638;2023-03-03T02:57:14;5.50;;;2.05;;
51782;SDS011;37845;53.196;5.638;2023-03-03T02:59:45;4.50;;;1.77;;
51782;SDS011;37845;53.196;5.638;2023-03-03T03:02:11;4.70;;;2.03;;
51782;SDS011;37845;53.196;5.638;2023-03-03T03:07:03;5.65;;;2.00;;
51782;SDS011;37845;53.196;5.638;2023-03-03T03:09:29;9.30;;;3.05;;
51782;SDS011;37845;53.196;5.638;2023-03-03T03:11:55;4.55;;;1.83;;
51782;SDS011;37845;53.196;5.638;2023-03-03T03:14:21;3.42;;;2.17;;
51782;SDS011;37845;53.196;5.638;2023-03-03T03:20:20;3.88;;;1.77;;
51782;SDS011;37845;53.196;5.638;2023-03-03T03:23:32;6.60;;;1.92;;
51782;SDS011;37845;53.196;5.638;2023-03-03T03:34:32;2.88;;;2.00;;
51782;SDS011;37845;53.196;5.638;2023-03-03T03:37:47;6.18;;;2.10;;
51782;SDS011;37845;53.196;5.638;2023-03-03T03:41:09;3.35;;;2.28;;
51782;SDS011;37845;53.196;5.638;2023-03-03T03:51:23;9.38;;;2.40;;
51782;SDS011;37845;53.196;5.638;2023-03-03T03:54:35;4.70;;;1.70;;
51782;SDS011;37845;53.196;5.638;2023-03-03T03:57:17;3.65;;;2.00;;
51782;SDS011;37845;53.196;5.638;2023-03-03T04:04:04;7.82;;;2.22;;
51782;SDS011;37845;53.196;5.638;2023-03-03T04:24:09;12.15;;;3.03;;
51782;SDS011;37845;53.196;5.638;2023-03-03T04:26:55;4.15;;;1.90;;
51782;SDS011;37845;53.196;5.638;2023-03-03T04:29:59;5.03;;;2.75;;
51782;SDS011;37845;53.196;5.638;2023-03-03T04:32:30;4.28;;;1.92;;
51782;SDS011;37845;53.196;5.638;2023-03-03T04:34:59;5.07;;;2.08;;
51782;SDS011;37845;53.196;5.638;2023-03-03T04:37:26;4.45;;;2.35;;
51782;SDS011;37845;53.196;5.638;2023-03-03T04:39:52;6.82;;;1.70;;
51782;SDS011;37845;53.196;5.638;2023-03-03T04:42:23;11.65;;;2.67;;
51782;SDS011;37845;53.196;5.638;2023-03-03T04:47:59;2.90;;;2.00;;
51782;SDS011;37845;53.196;5.638;2023-03-03T04:50:25;10.52;;;2.75;;
51782;SDS011;37845;53.196;5.638;2023-03-03T04:56:21;5.93;;;2.15;;
51782;SDS011;37845;53.196;5.638;2023-03-03T04:58:52;3.10;;;2.05;;
51782;SDS011;37845;53.196;5.638;2023-03-03T05:01:36;4.15;;;2.03;;
51782;SDS011;37845;53.196;5.638;2023-03-03T05:04:39;4.80;;;1.98;;
51782;SDS011;37845;53.196;5.638;2023-03-03T05:07:43;8.82;;;2.58;;
51782;SDS011;37845;53.196;5.638;2023-03-03T05:10:09;6.90;;;2.65;;
51782;SDS011;37845;53.196;5.638;2023-03-03T05:12:40;4.47;;;2.13;;
51782;SDS011;37845;53.196;5.638;2023-03-03T05:15:06;7.72;;;3.17;;
51782;SDS011;37845;53.196;5.638;2023-03-03T05:19:58;5.53;;;3.22;;
51782;SDS011;37845;53.196;5.638;2023-03-03T05:22:23;3.90;;;2.47;;
51782;SDS011;37845;53.196;5.638;2023-03-03T05:24:49;9.23;;;2.45;;
51782;SDS011;37845;53.196;5.638;2023-03-03T05:27:15;8.20;;;2.13;;
51782;SDS011;37845;53.196;5.638;2023-03-03T05:29:41;4.55;;;3.28;;
51782;SDS011;37845;53.196;5.638;2023-03-03T05:32:08;4.85;;;2.15;;
51782;SDS011;37845;53.196;5.638;2023-03-03T05:34:34;7.07;;;2.28;;
51782;SDS011;37845;53.196;5.638;2023-03-03T05:37:00;4.30;;;2.15;;
51782;SDS011;37845;53.196;5.638;2023-03-03T05:39:28;3.40;;;2.00;;
51782;SDS011;37845;53.196;5.638;2023-03-03T05:41:59;5.30;;;2.22;;
51782;SDS011;37845;53.196;5.638;2023-03-03T05:44:25;3.38;;;2.03;;
51782;SDS011;37845;53.196;5.638;2023-03-03T05:46:51;4.05;;;2.08;;
51782;SDS011;37845;53.196;5.638;2023-03-03T05:49:17;3.08;;;1.83;;
51782;SDS011;37845;53.196;5.638;2023-03-03T05:51:43;5.28;;;3.30;;
51782;SDS011;37845;53.196;5.638;2023-03-03T05:54:09;17.30;;;8.07;;
51782;SDS011;37845;53.196;5.638;2023-03-03T05:56:35;12.38;;;6.38;;
51782;SDS011;37845;53.196;5.638;2023-03-03T05:59:00;8.07;;;4.57;;
51782;SDS011;37845;53.196;5.638;2023-03-03T06:01:26;8.40;;;4.15;;
51782;SDS011;37845;53.196;5.638;2023-03-03T06:03:53;5.93;;;3.22;;
51782;SDS011;37845;53.196;5.638;2023-03-03T06:06:19;4.72;;;2.47;;
51782;SDS011;37845;53.196;5.638;2023-03-03T06:08:44;5.78;;;2.70;;
51782;SDS011;37845;53.196;5.638;2023-03-03T06:11:10;9.52;;;3.10;;
51782;SDS011;37845;53.196;5.638;2023-03-03T06:13:37;4.88;;;2.28;;
51782;SDS011;37845;53.196;5.638;2023-03-03T06:16:05;4.55;;;2.50;;
51782;SDS011;37845;53.196;5.638;2023-03-03T06:18:32;4.90;;;2.53;;
51782;SDS011;37845;53.196;5.638;2023-03-03T06:21:03;4.13;;;2.40;;
51782;SDS011;37845;53.196;5.638;2023-03-03T06:23:30;8.73;;;3.30;;
51782;SDS011;37845;53.196;5.638;2023-03-03T06:25:59;4.68;;;2.38;;
51782;SDS011;37845;53.196;5.638;2023-03-03T06:28:28;4.30;;;2.15;;
51782;SDS011;37845;53.196;5.638;2023-03-03T06:30:54;4.90;;;2.55;;
51782;SDS011;37845;53.196;5.638;2023-03-03T06:33:25;7.82;;;2.92;;
51782;SDS011;37845;53.196;5.638;2023-03-03T06:36:06;4.72;;;2.30;;
51782;SDS011;37845;53.196;5.638;2023-03-03T06:40:58;8.93;;;2.50;;
51782;SDS011;37845;53.196;5.638;2023-03-03T06:43:26;3.35;;;2.25;;
51782;SDS011;37845;53.196;5.638;2023-03-03T06:45:54;3.13;;;2.03;;
51782;SDS011;37845;53.196;5.638;2023-03-03T06:48:20;8.60;;;3.22;;
51782;SDS011;37845;53.196;5.638;2023-03-03T06:50:46;4.57;;;2.30;;
51782;SDS011;37845;53.196;5.638;2023-03-03T06:53:16;6.20;;;2.15;;
51782;SDS011;37845;53.196;5.638;2023-03-03T06:55:43;3.45;;;2.17;;
51782;SDS011;37845;53.196;5.638;2023-03-03T06:58:20;4.93;;;3.15;;
51782;SDS011;37845;53.196;5.638;2023-03-03T07:00:53;5.10;;;2.10;;
51782;SDS011;37845;53.196;5.638;2023-03-03T07:03:23;4.90;;;2.27;;
51782;SDS011;37845;53.196;5.638;2023-03-03T07:05:52;5.43;;;2.45;;
51782;SDS011;37845;53.196;5.638;2023-03-03T07:10:45;4.78;;;2.47;;
51782;SDS011;37845;53.196;5.638;2023-03-03T07:15:46;11.18;;;4.75;;
51782;SDS011;37845;53.196;5.638;2023-03-03T07:18:22;5.70;;;3.25;;
51782;SDS011;37845;53.196;5.638;2023-03-03T07:20:53;7.72;;;4.63;;
51782;SDS011;37845;53.196;5.638;2023-03-03T07:23:38;15.02;;;7.78;;
51782;SDS011;37845;53.196;5.638;2023-03-03T07:26:13;7.85;;;5.45;;
51782;SDS011;37845;53.196;5.638;2023-03-03T07:28:54;8.38;;;3.95;;
51782;SDS011;37845;53.196;5.638;2023-03-03T07:33:54;9.18;;;3.28;;
51782;SDS011;37845;53.196;5.638;2023-03-03T07:36:26;5.30;;;3.80;;
51782;SDS011;37845;53.196;5.638;2023-03-03T07:39:00;6.68;;;3.45;;
51782;SDS011;37845;53.196;5.638;2023-03-03T07:41:32;9.50;;;4.15;;
51782;SDS011;37845;53.196;5.638;2023-03-03T07:44:16;6.40;;;3.70;;
51782;SDS011;37845;53.196;5.638;2023-03-03T07:46:46;9.32;;;4.68;;
51782;SDS011;37845;53.196;5.638;2023-03-03T07:49:22;8.52;;;4.20;;
51782;SDS011;37845;53.196;5.638;2023-03-03T07:51:54;10.45;;;5.43;;
51782;SDS011;37845;53.196;5.638;2023-03-03T07:57:14;7.07;;;3.60;;
51782;SDS011;37845;53.196;5.638;2023-03-03T07:59:50;4.85;;;3.15;;
51782;SDS011;37845;53.196;5.638;2023-03-03T08:04:58;4.40;;;2.20;;
51782;SDS011;37845;53.196;5.638;2023-03-03T08:07:24;3.95;;;2.33;;
51782;SDS011;37845;53.196;5.638;2023-03-03T08:09:51;9.27;;;2.28;;
51782;SDS011;37845;53.196;5.638;2023-03-03T08:12:41;5.07;;;2.03;;
51782;SDS011;37845;53.196;5.638;2023-03-03T08:15:20;6.22;;;3.00;;
51782;SDS011;37845;53.196;5.638;2023-03-03T08:17:48;7.32;;;2.85;;
51782;SDS011;37845;53.196;5.638;2023-03-03T08:23:09;11.20;;;3.40;;
51782;SDS011;37845;53.196;5.638;2023-03-03T08:25:35;6.20;;;3.20;;
51782;SDS011;37845;53.196;5.638;2023-03-03T08:28:01;7.85;;;3.13;;
51782;SDS011;37845;53.196;5.638;2023-03-03T08:30:26;4.00;;;2.55;;
51782;SDS011;37845;53.196;5.638;2023-03-03T08:32:52;3.75;;;2.80;;
51782;SDS011;37845;53.196;5.638;2023-03-03T08:35:18;7.32;;;2.90;;
51782;SDS011;37845;53.196;5.638;2023-03-03T08:37:43;9.88;;;2.78;;
51782;SDS011;37845;53.196;5.638;2023-03-03T08:40:10;3.63;;;2.35;;
51782;SDS011;37845;53.196;5.638;2023-03-03T08:42:36;5.60;;;2.63;;
51782;SDS011;37845;53.196;5.638;2023-03-03T08:45:03;3.38;;;2.47;;
51782;SDS011;37845;53.196;5.638;2023-03-03T08:49:55;8.10;;;3.60;;
51782;SDS011;37845;53.196;5.638;2023-03-03T08:52:20;5.65;;;2.42;;
51782;SDS011;37845;53.196;5.638;2023-03-03T08:54:46;6.60;;;2.33;;
51782;SDS011;37845;53.196;5.638;2023-03-03T08:57:12;3.85;;;1.90;;
51782;SDS011;37845;53.196;5.638;2023-03-03T08:59:37;6.47;;;2.80;;
51782;SDS011;37845;53.196;5.638;2023-03-03T09:02:06;6.03;;;2.10;;
51782;SDS011;37845;53.196;5.638;2023-03-03T09:04:32;5.30;;;2.35;;
51782;SDS011;37845;53.196;5.638;2023-03-03T09:06:58;6.65;;;2.58;;
51782;SDS011;37845;53.196;5.638;2023-03-03T09:09:24;3.75;;;2.03;;
51782;SDS011;37845;53.196;5.638;2023-03-03T09:11:52;8.50;;;2.40;;
51782;SDS011;37845;53.196;5.638;2023-03-03T09:14:22;3.95;;;2.38;;
51782;SDS011;37845;53.196;5.638;2023-03-03T09:16:53;2.95;;;1.85;;
51782;SDS011;37845;53.196;5.638;2023-03-03T09:19:27;7.18;;;3.00;;
51782;SDS011;37845;53.196;5.638;2023-03-03T09:22:01;5.47;;;3.13;;
51782;SDS011;37845;53.196;5.638;2023-03-03T09:24:56;6.28;;;3.05;;
51782;SDS011;37845;53.196;5.638;2023-03-03T09:27:30;5.53;;;2.92;;
51782;SDS011;37845;53.196;5.638;2023-03-03T09:30:02;8.90;;;2.67;;
51782;SDS011;37845;53.196;5.638;2023-03-03T09:32:56;6.57;;;2.80;;
51782;SDS011;37845;53.196;5.638;2023-03-03T09:35:26;6.82;;;3.60;;
51782;SDS011;37845;53.196;5.638;2023-03-03T09:38:00;7.35;;;2.95;;
51782;SDS011;37845;53.196;5.638;2023-03-03T09:40:50;6.07;;;2.58;;
51782;SDS011;37845;53.196;5.638;2023-03-03T09:57:16;5.30;;;1.63;;
51782;SDS011;37845;53.196;5.638;2023-03-03T10:02:41;3.97;;;1.85;;
51782;SDS011;37845;53.196;5.638;2023-03-03T10:11:23;5.97;;;1.65;;
51782;SDS011;37845;53.196;5.638;2023-03-03T10:16:48;6.88;;;2.25;;
51782;SDS011;37845;53.196;5.638;2023-03-03T10:25:21;8.85;;;1.88;;
51782;SDS011;37845;53.196;5.638;2023-03-03T10:33:35;3.50;;;1.73;;
51782;SDS011;37845;53.196;5.638;2023-03-03T10:38:44;5.75;;;1.60;;
51782;SDS011;37845;53.196;5.638;2023-03-03T10:41:58;7.50;;;2.17;;
51782;SDS011;37845;53.196;5.638;2023-03-03T10:47:38;4.82;;;2.20;;
51782;SDS011;37845;53.196;5.638;2023-03-03T10:53:15;6.10;;;1.80;;
51782;SDS011;37845;53.196;5.638;2023-03-03T10:58:43;10.07;;;2.17;;
51782;SDS011;37845;53.196;5.638;2023-03-03T11:09:57;6.78;;;1.55;;
51782;SDS011;37845;53.196;5.638;2023-03-03T11:12:28;7.88;;;2.50;;
51782;SDS011;37845;53.196;5.638;2023-03-03T11:21:05;6.72;;;3.33;;
51782;SDS011;37845;53.196;5.638;2023-03-03T11:26:10;3.60;;;1.60;;
51782;SDS011;37845;53.196;5.638;2023-03-03T11:29:09;9.43;;;2.35;;
51782;SDS011;37845;53.196;5.638;2023-03-03T11:35:07;4.80;;;2.22;;
51782;SDS011;37845;53.196;5.638;2023-03-03T11:43:33;8.63;;;3.67;;
51782;SDS011;37845;53.196;5.638;2023-03-03T11:46:12;3.88;;;2.65;;
51782;SDS011;37845;53.196;5.638;2023-03-03T11:51:46;5.93;;;2.35;;
51782;SDS011;37845;53.196;5.638;2023-03-03T11:54:35;5.38;;;2.17;;
51782;SDS011;37845;53.196;5.638;2023-03-03T12:00:00;16.13;;;3.25;;
51782;SDS011;37845;53.196;5.638;2023-03-03T12:02:44;24.05;;;4.43;;
51782;SDS011;37845;53.196;5.638;2023-03-03T12:08:34;16.05;;;5.15;;
51782;SDS011;37845;53.196;5.638;2023-03-03T12:20:16;11.50;;;2.50;;
51782;SDS011;37845;53.196;5.638;2023-03-03T12:28:04;11.68;;;3.13;;
51782;SDS011;37845;53.196;5.638;2023-03-03T12:38:53;17.17;;;5.00;;
51782;SDS011;37845;53.196;5.638;2023-03-03T12:44:43;20.02;;;4.93;;
51782;SDS011;37845;53.196;5.638;2023-03-03T12:47:37;18.60;;;4.55;;
51782;SDS011;37845;53.196;5.638;2023-03-03T13:04:33;12.63;;;4.43;;
51782;SDS011;37845;53.196;5.638;2023-03-03T13:09:54;17.55;;;4.13;;
51782;SDS011;37845;53.196;5.638;2023-03-03T13:15:12;21.45;;;5.68;;
51782;SDS011;37845;53.196;5.638;2023-03-03T13:26:52;30.15;;;7.63;;
51782;SDS011;37845;53.196;5.638;2023-03-03T13:29:40;26.90;;;4.97;;
51782;SDS011;37845;53.196;5.638;2023-03-03T13:32:18;16.48;;;4.22;;
51782;SDS011;37845;53.196;5.638;2023-03-03T13:37:31;14.70;;;4.63;;
51782;SDS011;37845;53.196;5.638;2023-03-03T13:42:48;22.42;;;5.22;;
51782;SDS011;37845;53.196;5.638;2023-03-03T13:45:35;11.68;;;3.55;;
51782;SDS011;37845;53.196;5.638;2023-03-03T13:51:21;17.50;;;5.25;;
51782;SDS011;37845;53.196;5.638;2023-03-03T14:07:23;23.23;;;5.13;;
51782;SDS011;37845;53.196;5.638;2023-03-03T14:15:32;17.52;;;4.47;;
51782;SDS011;37845;53.196;5.638;2023-03-03T14:21:08;12.43;;;5.43;;
51782;SDS011;37845;53.196;5.638;2023-03-03T14:23:46;25.05;;;5.30;;
51782;SDS011;37845;53.196;5.638;2023-03-03T14:26:44;21.50;;;6.10;;
51782;SDS011;37845;53.196;5.638;2023-03-03T14:31:52;21.48;;;5.65;;
51782;SDS011;37845;53.196;5.638;2023-03-03T14:36:56;20.73;;;4.97;;
51782;SDS011;37845;53.196;5.638;2023-03-03T14:39:27;17.25;;;4.30;;
51782;SDS011;37845;53.196;5.638;2023-03-03T14:42:46;34.22;;;5.85;;
51782;SDS011;37845;53.196;5.638;2023-03-03T14:44:55;21.33;;;5.63;;
51782;SDS011;37845;53.196;5.638;2023-03-03T14:47:26;16.23;;;5.18;;
51782;SDS011;37845;53.196;5.638;2023-03-03T14:49:53;23.70;;;6.63;;
51782;SDS011;37845;53.196;5.638;2023-03-03T14:52:28;15.90;;;4.88;;
51782;SDS011;37845;53.196;5.638;2023-03-03T14:54:55;12.30;;;5.45;;
51782;SDS011;37845;53.196;5.638;2023-03-03T15:05:49;11.27;;;5.57;;
51782;SDS011;37845;53.196;5.638;2023-03-03T15:08:29;21.63;;;5.32;;
51782;SDS011;37845;53.196;5.638;2023-03-03T15:11:18;15.70;;;4.90;;
51782;SDS011;37845;53.196;5.638;2023-03-03T15:13:50;15.98;;;4.03;;
51782;SDS011;37845;53.196;5.638;2023-03-03T15:16:22;20.95;;;4.82;;
51782;SDS011;37845;53.196;5.638;2023-03-03T15:21:25;19.38;;;4.85;;
51782;SDS011;37845;53.196;5.638;2023-03-03T15:23:59;32.05;;;7.40;;
51782;SDS011;37845;53.196;5.638;2023-03-03T15:29:41;19.48;;;5.25;;
51782;SDS011;37845;53.196;5.638;2023-03-03T15:32:26;17.45;;;4.20;;
51782;SDS011;37845;53.196;5.638;2023-03-03T15:40:23;35.22;;;7.10;;
51782;SDS011;37845;53.196;5.638;2023-03-03T15:42:56;18.83;;;4.65;;
51782;SDS011;37845;53.196;5.638;2023-03-03T15:54:05;20.02;;;6.45;;
51782;SDS011;37845;53.196;5.638;2023-03-03T15:56:56;25.88;;;6.18;;
51782;SDS011;37845;53.196;5.638;2023-03-03T15:59:36;24.20;;;5.32;;
51782;SDS011;37845;53.196;5.638;2023-03-03T16:02:28;20.30;;;6.43;;
51782;SDS011;37845;53.196;5.638;2023-03-03T16:08:09;20.17;;;5.28;;
51782;SDS011;37845;53.196;5.638;2023-03-03T16:16:10;31.17;;;6.28;;
51782;SDS011;37845;53.196;5.638;2023-03-03T16:19:12;17.55;;;5.75;;
51782;SDS011;37845;53.196;5.638;2023-03-03T16:28:04;26.25;;;6.07;;
51782;SDS011;37845;53.196;5.638;2023-03-03T16:33:35;26.33;;;6.35;;
51782;SDS011;37845;53.196;5.638;2023-03-03T16:36:18;19.27;;;5.40;;
51782;SDS011;37845;53.196;5.638;2023-03-03T16:41:59;21.25;;;6.38;;
51782;SDS011;37845;53.196;5.638;2023-03-03T16:52:49;20.63;;;5.37;;
51782;SDS011;37845;53.196;5.638;2023-03-03T16:55:24;14.95;;;5.00;;
51782;SDS011;37845;53.196;5.638;2023-03-03T16:58:27;29.10;;;6.60;;
51782;SDS011;37845;53.196;5.638;2023-03-03T17:14:50;24.85;;;6.85;;
51782;SDS011;37845;53.196;5.638;2023-03-03T17:25:43;24.55;;;6.93;;
51782;SDS011;37845;53.196;5.638;2023-03-03T17:32:21;19.92;;;6.90;;
51782;SDS011;37845;53.196;5.638;2023-03-03T17:42:14;30.02;;;5.60;;
51782;SDS011;37845;53.196;5.638;2023-03-03T17:45:09;28.25;;;6.65;;
51782;SDS011;37845;53.196;5.638;2023-03-03T17:47:57;21.92;;;6.10;;
51782;SDS011;37845;53.196;5.638;2023-03-03T17:59:06;18.05;;;5.68;;
51782;SDS011;37845;53.196;5.638;2023-03-03T18:20:48;26.83;;;7.15;;
51782;SDS011;37845;53.196;5.638;2023-03-03T18:23:37;27.98;;;6.05;;
51782;SDS011;37845;53.196;5.638;2023-03-03T18:31:20;26.85;;;6.53;;
51782;SDS011;37845;53.196;5.638;2023-03-03T18:34:02;13.57;;;4.85;;
51782;SDS011;37845;53.196;5.638;2023-03-03T18:37:44;17.33;;;7.03;;
51782;SDS011;37845;53.196;5.638;2023-03-03T18:42:34;24.10;;;3.53;;
51782;SDS011;37845;53.196;5.638;2023-03-03T18:45:48;19.95;;;4.70;;
51782;SDS011;37845;53.196;5.638;2023-03-03T18:48:10;45.10;;;8.10;;
51782;SDS011;37845;53.196;5.638;2023-03-03T18:50:38;15.65;;;5.28;;
51782;SDS011;37845;53.196;5.638;2023-03-03T18:55:49;27.10;;;6.68;;
51782;SDS011;37845;53.196;5.638;2023-03-03T19:00:49;17.35;;;4.90;;
51782;SDS011;37845;53.196;5.638;2023-03-03T19:03:25;12.15;;;3.72;;
51782;SDS011;37845;53.196;5.638;2023-03-03T19:05:57;18.85;;;5.40;;
51782;SDS011;37845;53.196;5.638;2023-03-03T19:43:50;15.38;;;5.85;;
51782;SDS011;37845;53.196;5.638;2023-03-03T19:52:02;16.67;;;4.95;;
51782;SDS011;37845;53.196;5.638;2023-03-03T20:05:47;17.45;;;5.18;;
51782;SDS011;37845;53.196;5.638;2023-03-03T20:08:22;17.17;;;5.03;;
51782;SDS011;37845;53.196;5.638;2023-03-03T20:10:56;20.60;;;5.80;;
51782;SDS011;37845;53.196;5.638;2023-03-03T20:16:27;23.77;;;4.85;;
51782;SDS011;37845;53.196;5.638;2023-03-03T20:50:01;21.67;;;4.00;;
51782;SDS011;37845;53.196;5.638;2023-03-03T21:16:56;31.77;;;6.40;;
51782;SDS011;37845;53.196;5.638;2023-03-03T21:19:46;12.10;;;3.53;;
51782;SDS011;37845;53.196;5.638;2023-03-03T21:23:02;28.88;;;4.63;;
51782;SDS011;37845;53.196;5.638;2023-03-03T21:29:14;16.38;;;5.72;;
51782;SDS011;37845;53.196;5.638;2023-03-03T21:31:45;24.20;;;6.95;;
51782;SDS011;37845;53.196;5.638;2023-03-03T21:34:19;21.75;;;5.35;;
51782;SDS011;37845;53.196;5.638;2023-03-03T21:40:42;12.77;;;3.42;;
51782;SDS011;37845;53.196;5.638;2023-03-03T21:46:25;19.40;;;4.80;;
51782;SDS011;37845;53.196;5.638;2023-03-03T21:51:39;16.30;;;5.72;;
51782;SDS011;37845;53.196;5.638;2023-03-03T21:54:33;12.35;;;3.90;;
51782;SDS011;37845;53.196;5.638;2023-03-03T21:57:00;21.35;;;4.05;;
51782;SDS011;37845;53.196;5.638;2023-03-03T21:59:26;20.42;;;4.60;;
51782;SDS011;37845;53.196;5.638;2023-03-03T22:01:55;11.30;;;3.72;;
51782;SDS011;37845;53.196;5.638;2023-03-03T22:04:21;14.32;;;4.25;;
51782;SDS011;37845;53.196;5.638;2023-03-03T22:06:46;21.90;;;5.15;;
51782;SDS011;37845;53.196;5.638;2023-03-03T22:09:13;15.90;;;4.40;;
51782;SDS011;37845;53.196;5.638;2023-03-03T22:11:38;11.52;;;5.18;;
51782;SDS011;37845;53.196;5.638;2023-03-03T22:14:07;21.08;;;4.43;;
51782;SDS011;37845;53.196;5.638;2023-03-03T22:16:33;12.13;;;4.30;;
51782;SDS011;37845;53.196;5.638;2023-03-03T22:21:25;9.60;;;3.33;;
51782;SDS011;37845;53.196;5.638;2023-03-03T22:26:43;16.77;;;4.45;;
51782;SDS011;37845;53.196;5.638;2023-03-03T22:29:09;13.88;;;4.53;;
51782;SDS011;37845;53.196;5.638;2023-03-03T22:31:47;15.88;;;3.85;;
51782;SDS011;37845;53.196;5.638;2023-03-03T22:34:16;11.80;;;3.25;;
51782;SDS011;37845;53.196;5.638;2023-03-03T22:39:48;18.83;;;3.78;;
51782;SDS011;37845;53.196;5.638;2023-03-03T22:42:18;25.38;;;4.03;;
51782;SDS011;37845;53.196;5.638;2023-03-03T22:44:55;10.35;;;3.50;;
51782;SDS011;37845;53.196;5.638;2023-03-03T22:47:21;14.05;;;4.22;;
51782;SDS011;37845;53.196;5.638;2023-03-03T22:49:46;11.77;;;4.80;;
51782;SDS011;37845;53.196;5.638;2023-03-03T22:52:20;13.68;;;3.00;;
51782;SDS011;37845;53.196;5.638;2023-03-03T22:55:06;17.42;;;5.07;;
51782;SDS011;37845;53.196;5.638;2023-03-03T22:57:32;10.80;;;4.18;;
51782;SDS011;37845;53.196;5.638;2023-03-03T22:59:58;12.63;;;4.10;;
51782;SDS011;37845;53.196;5.638;2023-03-03T23:04:49;13.80;;;3.92;;
51782;SDS011;37845;53.196;5.638;2023-03-03T23:07:22;15.10;;;5.28;;
51782;SDS011;37845;53.196;5.638;2023-03-03T23:09:49;20.45;;;4.75;;
51782;SDS011;37845;53.196;5.638;2023-03-03T23:12:15;14.95;;;3.92;;
51782;SDS011;37845;53.196;5.638;2023-03-03T23:14:41;11.13;;;3.97;;
51782;SDS011;37845;53.196;5.638;2023-03-03T23:17:06;17.42;;;5.40;;
51782;SDS011;37845;53.196;5.638;2023-03-03T23:19:35;11.75;;;3.25;;
51782;SDS011;37845;53.196;5.638;2023-03-03T23:22:04;17.95;;;5.28;;
51782;SDS011;37845;53.196;5.638;2023-03-03T23:26:57;10.93;;;3.88;;
51782;SDS011;37845;53.196;5.638;2023-03-03T23:29:24;16.33;;;3.97;;
51782;SDS011;37845;53.196;5.638;2023-03-03T23:31:50;9.02;;;4.47;;
51782;SDS011;37845;53.196;5.638;2023-03-03T23:34:16;14.48;;;4.00;;
51782;SDS011;37845;53.196;5.638;2023-03-03T23:36:42;12.30;;;4.70;;
51782;SDS011;37845;53.196;5.638;2023-03-03T23:39:07;13.88;;;2.92;;
51782;SDS011;37845;53.196;5.638;2023-03-03T23:41:36;17.02;;;4.40;;
51782;SDS011;37845;53.196;5.638;2023-03-03T23:44:02;13.52;;;4.25;;
51782;SDS011;37845;53.196;5.638;2023-03-03T23:46:28;15.02;;;4.55;;
51782;SDS011;37845;53.196;5.638;2023-03-03T23:48:54;16.50;;;4.55;;
51782;SDS011;37845;53.196;5.638;2023-03-03T23:51:20;18.85;;;3.55;;
51782;SDS011;37845;53.196;5.638;2023-03-03T23:53:46;17.48;;;3.90;;
51782;SDS011;37845;53.196;5.638;2023-03-03T23:56:12;9.90;;;3.85;;
51782;SDS011;37845;53.196;5.638;2023-03-03T23:58:37;15.25;;;3.30;;
